Time;durP1;ratioP1;P1;durP2;ratioP2;P2;SDS_P1;SDS_P2;PMS_P1;PMS_P2;Temp;Humidity;BMP_temperature;BMP_pressure;BME280_temperature;BME280_humidity;BME280_pressure;Samples;Min_cycle;Max_cycle;Signal;HPM_P1;HPM_P2
2021/04/22 00:00:17;;;;;;;13.75;9.08;;;;;;;7.80;71.85;99367.75;1634744;86;21173;-62
2021/04/22 00:02:45;;;;;;;14.40;8.98;;;;;;;7.77;71.88;99372.34;1683593;84;21133;-61
2021/04/22 00:05:17;;;;;;;12.68;8.93;;;;;;;7.68;72.20;99369.04;1686146;84;21572;-62
2021/04/22 00:07:47;;;;;;;12.93;8.48;;;;;;;7.58;72.54;99375.75;1688561;84;21146;-62
2021/04/22 00:10:16;;;;;;;12.82;8.70;;;;;;;7.55;72.62;99381.66;1680969;84;21685;-61
2021/04/22 00:12:43;;;;;;;10.98;8.03;;;;;;;7.53;73.03;99378.41;1685780;84;21292;-62
2021/04/22 00:15:15;;;;;;;12.25;8.35;;;;;;;7.48;73.01;99387.31;1688934;84;21265;-62
2021/04/22 00:17:44;;;;;;;12.45;8.25;;;;;;;7.40;73.26;99392.66;1707089;83;21300;-62
2021/04/22 00:20:15;;;;;;;13.15;8.65;;;;;;;7.39;73.23;99392.41;1702116;84;21150;-62
2021/04/22 00:22:44;;;;;;;12.05;8.13;;;;;;;7.45;73.07;99393.25;1709165;84;21145;-62
2021/04/22 00:25:12;;;;;;;10.72;7.92;;;;;;;7.42;73.04;99398.66;1701220;83;21173;-62
2021/04/22 00:27:40;;;;;;;13.35;8.68;;;;;;;7.34;73.23;99397.77;1634697;88;21204;-62
2021/04/22 00:30:10;;;;;;;13.70;9.05;;;;;;;7.26;73.43;99392.82;1683376;84;21367;-62
2021/04/22 00:32:42;;;;;;;12.05;8.95;;;;;;;7.22;73.55;99395.80;1699313;84;21244;-62
2021/04/22 00:35:11;;;;;;;11.93;8.58;;;;;;;7.22;73.64;99388.20;1709116;83;21181;-62
2021/04/22 00:37:39;;;;;;;13.03;8.80;;;;;;;7.17;73.72;99398.98;1687562;84;21613;-61
2021/04/22 00:40:14;;;;;;;13.70;9.40;;;;;;;7.08;74.04;99397.83;1696550;84;21311;-61
2021/04/22 00:42:41;;;;;;;11.55;8.43;;;;;;;7.04;74.35;99395.34;1707567;84;21198;-61
2021/04/22 00:45:10;;;;;;;10.85;8.45;;;;;;;7.04;74.21;99392.11;1696052;83;21322;-62
2021/04/22 00:47:38;;;;;;;12.93;8.30;;;;;;;7.03;74.28;99400.47;1706978;84;21287;-62
2021/04/22 00:50:15;;;;;;;14.40;9.05;;;;;;;6.59;74.47;99341.06;1708620;84;21320;-62
2021/04/22 00:52:42;;;;;;;12.10;8.90;;;;;;;6.89;74.71;99400.90;1681058;85;21553;-62
2021/04/22 00:55:12;;;;;;;10.43;8.10;;;;;;;6.90;74.74;99396.31;1698800;84;21647;-62
2021/04/22 00:57:41;;;;;;;14.03;7.80;;;;;;;6.93;74.73;99398.50;1681542;84;21715;-62
2021/04/22 01:00:09;;;;;;;12.70;8.80;;;;;;;6.94;74.65;99405.55;1681482;84;21888;-62
2021/04/22 01:02:37;;;;;;;14.38;9.48;;;;;;;6.88;74.73;99407.91;1694966;84;21292;-62
2021/04/22 01:05:08;;;;;;;10.63;8.33;;;;;;;6.84;74.87;99406.78;1709128;84;21194;-62
2021/04/22 01:07:40;;;;;;;11.65;8.90;;;;;;;6.83;74.77;99407.34;1692030;84;21130;-62
2021/04/22 01:10:09;;;;;;;11.10;8.78;;;;;;;6.83;74.76;99412.75;1691162;84;21165;-62
2021/04/22 01:12:36;;;;;;;12.18;9.25;;;;;;;6.81;74.94;99409.47;1692716;83;21632;-62
2021/04/22 01:15:10;;;;;;;13.35;8.95;;;;;;;6.76;75.05;99410.78;1681355;84;21329;-62
2021/04/22 01:17:37;;;;;;;14.13;8.78;;;;;;;6.73;75.28;99403.16;1681792;84;21201;-62
2021/04/22 01:20:18;;;;;;;12.35;9.20;;;;;;;6.79;75.12;99406.22;1699903;84;21206;-62
2021/04/22 01:22:47;;;;;;;12.30;9.25;;;;;;;6.82;75.01;99399.47;1709126;84;21219;-61
2021/04/22 01:25:19;;;;;;;12.33;9.48;;;;;;;6.81;75.05;99406.77;1706960;83;21299;-61
2021/04/22 01:27:47;;;;;;;13.98;9.65;;;;;;;6.73;75.19;99411.27;1703280;83;21194;-62
2021/04/22 01:30:19;;;;;;;12.60;8.43;;;;;;;6.70;75.29;99410.42;1690126;84;21284;-62
2021/04/22 01:32:47;;;;;;;12.78;9.28;;;;;;;6.71;75.18;99416.66;1696072;84;21142;-62
2021/04/22 01:35:17;;;;;;;12.40;8.80;;;;;;;6.64;75.51;99414.69;1682249;84;21635;-62
2021/04/22 01:37:44;;;;;;;14.23;9.50;;;;;;;6.54;75.72;99414.05;1684476;84;21165;-62
2021/04/22 01:40:13;;;;;;;13.70;9.40;;;;;;;6.50;75.91;99412.91;1681107;84;21340;-62
2021/04/22 01:42:40;;;;;;;13.20;9.23;;;;;;;6.52;75.92;99409.41;1704245;84;21291;-62
2021/04/22 01:45:09;;;;;;;13.80;10.00;;;;;;;6.54;75.90;99406.47;1705675;83;21620;-62
2021/04/22 01:47:37;;;;;;;15.55;10.23;;;;;;;6.52;75.93;99400.51;1720914;83;21303;-62
2021/04/22 01:50:08;;;;;;;14.87;10.53;;;;;;;6.45;76.09;99403.38;1715087;83;21302;-62
2021/04/22 01:52:37;;;;;;;13.35;9.78;;;;;;;6.44;76.04;99407.17;1695138;83;21169;-63
2021/04/22 01:55:06;;;;;;;14.87;10.78;;;;;;;6.47;76.09;99408.84;1696148;83;21299;-63
2021/04/22 01:57:34;;;;;;;15.98;10.35;;;;;;;6.46;76.10;99407.20;1704984;83;21169;-63
2021/04/22 02:00:02;;;;;;;19.98;11.53;;;;;;;6.41;76.27;99406.34;1716285;83;21181;-62
2021/04/22 02:02:32;;;;;;;17.15;10.55;;;;;;;6.35;76.45;99411.38;1695808;83;21132;-62
2021/04/22 02:04:59;;;;;;;16.05;10.32;;;;;;;6.35;76.49;99408.14;1700429;83;21177;-62
2021/04/22 02:07:26;;;;;;;15.83;10.72;;;;;;;6.37;76.32;99411.42;1694557;83;21326;-62
2021/04/22 02:09:55;;;;;;;17.87;11.10;;;;;;;6.30;76.36;99401.87;1699286;83;21173;-62
2021/04/22 02:12:23;;;;;;;14.78;11.08;;;;;;;6.19;76.78;99406.86;1718066;83;21152;-62
2021/04/22 02:14:50;;;;;;;14.55;10.40;;;;;;;6.16;77.00;99410.89;1695554;83;21193;-62
2021/04/22 02:17:17;;;;;;;14.68;10.75;;;;;;;6.18;77.10;99405.22;1709274;83;21172;-61
2021/04/22 02:19:45;;;;;;;14.78;10.98;;;;;;;6.19;77.22;99409.03;1706243;83;21360;-62
2021/04/22 02:22:12;;;;;;;16.90;11.95;;;;;;;6.16;77.47;99414.13;1704787;83;21177;-62
2021/04/22 02:24:40;;;;;;;13.88;10.88;;;;;;;6.13;77.59;99424.88;1720739;83;21364;-62
2021/04/22 02:27:08;;;;;;;17.62;10.58;;;;;;;6.17;77.53;99422.49;1714832;83;21168;-63
2021/04/22 02:29:35;;;;;;;15.05;10.45;;;;;;;6.23;77.44;99418.28;1694241;83;21720;-62
2021/04/22 02:32:04;;;;;;;13.95;10.35;;;;;;;6.24;77.45;99418.55;1698513;83;21564;-63
2021/04/22 02:34:32;;;;;;;14.70;10.65;;;;;;;6.20;77.65;99421.45;1714917;83;21162;-63
2021/04/22 02:37:00;;;;;;;14.07;10.23;;;;;;;6.23;77.55;99421.52;1693895;85;21112;-62
2021/04/22 02:39:27;;;;;;;13.95;10.10;;;;;;;6.28;77.38;99418.33;1693928;85;21190;-62
2021/04/22 02:41:55;;;;;;;15.68;10.18;;;;;;;6.31;77.30;99421.87;1700310;83;21295;-63
2021/04/22 02:44:25;;;;;;;14.50;10.58;;;;;;;6.25;77.25;99417.48;1708942;83;21234;-62
2021/04/22 02:46:52;;;;;;;13.85;10.50;;;;;;;6.20;77.28;99419.31;1705743;83;21294;-62
2021/04/22 02:49:19;;;;;;;17.95;10.18;;;;;;;6.21;77.14;99420.41;1707603;83;21299;-62
2021/04/22 02:51:46;;;;;;;13.85;9.88;;;;;;;6.20;77.14;99422.02;1721832;83;21157;-62
2021/04/22 02:54:14;;;;;;;14.33;10.25;;;;;;;6.16;77.16;99424.41;1720205;83;21153;-62
2021/04/22 02:56:42;;;;;;;13.00;10.05;;;;;;;6.08;77.37;99425.36;1720022;83;21189;-62
2021/04/22 02:59:10;;;;;;;16.00;11.00;;;;;;;6.05;77.51;99425.86;1717378;83;21172;-62
2021/04/22 03:01:38;;;;;;;12.95;10.10;;;;;;;6.06;77.60;99431.56;1707404;83;21624;-63
2021/04/22 03:04:06;;;;;;;15.00;10.35;;;;;;;6.06;77.63;99429.65;1695841;83;21204;-62
2021/04/22 03:06:34;;;;;;;15.70;10.13;;;;;;;5.99;77.90;99433.89;1657836;85;21164;-62
2021/04/22 03:09:02;;;;;;;14.05;10.05;;;;;;;5.93;78.04;99432.19;1696223;83;21177;-62
2021/04/22 03:11:29;;;;;;;13.32;10.13;;;;;;;5.94;78.12;99435.72;1719937;83;21125;-62
2021/04/22 03:13:57;;;;;;;15.10;9.43;;;;;;;5.97;78.05;99431.98;1722627;83;21181;-62
2021/04/22 03:16:25;;;;;;;12.53;9.60;;;;;;;6.01;77.97;99433.66;1707043;83;21201;-62
2021/04/22 03:18:53;;;;;;;12.43;10.18;;;;;;;6.01;78.07;99428.25;1642516;86;21258;-62
2021/04/22 03:21:20;;;;;;;12.00;9.98;;;;;;;5.97;78.16;99433.86;1694507;83;21581;-62
2021/04/22 03:23:49;;;;;;;13.60;10.03;;;;;;;5.98;78.04;99435.51;1715498;83;21161;-61
2021/04/22 03:26:17;;;;;;;12.43;9.20;;;;;;;6.04;77.97;99437.20;1722624;83;21204;-61
2021/04/22 03:28:44;;;;;;;12.55;9.93;;;;;;;6.07;77.85;99438.05;1715539;83;21152;-61
2021/04/22 03:31:13;;;;;;;13.78;9.68;;;;;;;6.05;77.94;99435.33;1655424;86;21197;-61
2021/04/22 03:33:40;;;;;;;12.10;9.98;;;;;;;6.00;77.96;99436.88;1693527;84;21177;-61
2021/04/22 03:36:08;;;;;;;14.10;9.85;;;;;;;6.02;77.91;99439.35;1711912;83;21197;-61
2021/04/22 03:38:36;;;;;;;11.57;9.73;;;;;;;6.06;77.76;99436.97;1676703;83;21603;-62
2021/04/22 03:41:03;;;;;;;12.35;9.88;;;;;;;6.08;77.79;99449.69;1723075;83;21145;-62
2021/04/22 03:43:30;;;;;;;14.70;10.82;;;;;;;6.05;78.09;99451.00;1722991;83;21142;-63
2021/04/22 03:45:57;;;;;;;14.35;10.25;;;;;;;6.04;78.25;99448.54;1714621;83;21178;-63
2021/04/22 03:48:24;;;;;;;13.72;9.25;;;;;;;6.08;78.30;99446.45;1706596;84;21272;-62
2021/04/22 03:50:52;;;;;;;13.25;9.83;;;;;;;6.19;78.17;99451.46;1707265;84;21197;-62
2021/04/22 03:53:19;;;;;;;11.43;9.45;;;;;;;6.29;78.03;99447.00;1687377;84;21153;-62
2021/04/22 03:55:47;;;;;;;13.18;9.88;;;;;;;6.35;78.07;99460.04;1680968;85;21541;-62
2021/04/22 03:58:26;;;;;;;12.15;9.78;;;;;;;6.49;78.02;99458.59;1700257;83;21161;-62
2021/04/22 04:00:53;;;;;;;11.78;9.33;;;;;;;6.75;77.57;99474.07;1693116;84;21607;-63
2021/04/22 04:03:20;;;;;;;13.10;10.58;;;;;;;7.00;76.96;99473.00;1683293;84;21319;-63
2021/04/22 04:05:48;;;;;;;14.18;9.95;;;;;;;7.20;75.82;99475.61;1665940;85;21325;-63
2021/04/22 04:08:17;;;;;;;11.75;9.55;;;;;;;7.37;75.47;99479.02;1694046;83;21118;-63
2021/04/22 04:10:44;;;;;;;12.85;9.90;;;;;;;7.53;74.23;99480.80;1673787;84;21173;-63
2021/04/22 04:13:11;;;;;;;11.73;9.33;;;;;;;7.70;74.27;99489.61;1694220;83;21350;-63
2021/04/22 04:15:39;;;;;;;12.45;9.43;;;;;;;7.93;73.45;99489.27;1676164;85;21194;-64
2021/04/22 04:18:06;;;;;;;11.80;8.83;;;;;;;8.20;72.45;99499.18;1693360;84;21163;-63
2021/04/22 04:20:34;;;;;;;13.18;9.50;;;;;;;8.39;71.78;99495.82;1693008;84;21773;-63
2021/04/22 04:23:02;;;;;;;11.57;9.00;;;;;;;8.59;71.23;99498.34;1675934;85;21177;-63
2021/04/22 04:25:29;;;;;;;15.10;10.32;;;;;;;8.78;70.86;99499.52;1692625;84;21634;-63
2021/04/22 04:27:56;;;;;;;13.98;10.13;;;;;;;8.97;69.76;99493.86;1665766;85;21617;-63
2021/04/22 04:30:24;;;;;;;11.60;8.95;;;;;;;9.18;69.92;99496.09;1692215;84;21164;-62
2021/04/22 04:32:52;;;;;;;11.33;8.73;;;;;;;9.47;69.11;99494.52;1672649;84;21352;-62
2021/04/22 04:35:20;;;;;;;13.22;8.93;;;;;;;9.78;66.88;99492.08;1663070;85;21333;-62
2021/04/22 04:37:47;;;;;;;11.38;8.85;;;;;;;10.02;66.30;99496.97;1691014;84;21362;-63
2021/04/22 04:40:16;;;;;;;12.45;9.63;;;;;;;10.13;65.28;99495.88;1675451;85;21333;-62
2021/04/22 04:42:44;;;;;;;12.00;8.40;;;;;;;10.17;64.68;99496.42;1692930;85;21185;-62
2021/04/22 04:45:15;;;;;;;11.40;8.85;;;;;;;10.27;64.87;99499.69;1675971;85;21226;-62
2021/04/22 04:47:43;;;;;;;11.22;8.60;;;;;;;10.43;64.26;99498.00;1693110;85;21176;-60
2021/04/22 04:50:12;;;;;;;12.25;8.85;;;;;;;10.61;64.18;99503.39;1675853;85;21192;-60
2021/04/22 04:52:39;;;;;;;11.85;8.18;;;;;;;10.78;64.09;99504.41;1692963;84;21149;-61
2021/04/22 04:55:08;;;;;;;9.18;7.87;;;;;;;10.99;63.30;99516.84;1675884;85;21166;-62
2021/04/22 04:57:36;;;;;;;11.08;8.28;;;;;;;11.19;62.43;99505.05;1663085;86;21228;-60
2021/04/22 05:00:08;;;;;;;10.43;8.38;;;;;;;11.45;62.41;99513.31;1673778;85;21183;-60
2021/04/22 05:02:36;;;;;;;8.55;6.85;;;;;;;11.75;62.12;99510.97;1672094;85;21209;-62
2021/04/22 05:05:07;;;;;;;10.90;7.90;;;;;;;12.07;61.23;99509.88;1673795;85;21196;-62
2021/04/22 05:07:34;;;;;;;10.78;8.03;;;;;;;12.28;59.72;99509.12;1654798;86;21192;-60
2021/04/22 05:10:04;;;;;;;10.65;8.20;;;;;;;12.30;58.49;99502.27;1673743;85;21173;-60
2021/04/22 05:12:32;;;;;;;8.35;7.42;;;;;;;12.26;58.16;99503.95;1673260;85;21146;-60
2021/04/22 05:14:59;;;;;;;10.30;8.18;;;;;;;12.26;58.80;99511.31;1673912;85;21194;-59
2021/04/22 05:17:26;;;;;;;11.60;7.80;;;;;;;12.32;59.07;99511.00;1673723;86;21171;-59
2021/04/22 05:19:54;;;;;;;9.33;7.58;;;;;;;12.35;58.06;99518.61;1673888;85;21185;-60
2021/04/22 05:22:21;;;;;;;10.00;8.10;;;;;;;12.25;58.11;99514.63;1673665;86;21217;-60
2021/04/22 05:24:50;;;;;;;9.95;7.70;;;;;;;12.18;58.93;99517.42;1673690;85;21201;-60
2021/04/22 05:27:17;;;;;;;9.93;7.83;;;;;;;12.23;59.84;99518.17;1673910;85;21151;-60
2021/04/22 05:29:45;;;;;;;10.25;7.72;;;;;;;12.35;59.00;99520.52;1673689;86;21895;-60
2021/04/22 05:32:12;;;;;;;9.30;7.62;;;;;;;12.37;58.23;99520.48;1673796;86;21252;-60
2021/04/22 05:34:40;;;;;;;10.43;8.43;;;;;;;12.32;58.62;99518.37;1673828;86;21173;-60
2021/04/22 05:37:09;;;;;;;12.85;9.35;;;;;;;12.26;59.19;99523.05;1673687;85;21222;-61
2021/04/22 05:39:37;;;;;;;12.25;8.95;;;;;;;12.08;60.03;99516.94;1673601;86;21189;-60
2021/04/22 05:42:24;;;;;;;14.03;9.70;;;;;;;11.98;60.04;99520.58;1673727;86;21225;-60
2021/04/22 05:44:52;;;;;;;;;;;;;;;11.81;60.43;99514.73;1659518;86;21322;-60
2021/04/22 05:47:19;;;;;;;11.12;8.85;;;;;;;11.49;61.85;99520.66;1644974;87;20262;-60
2021/04/22 05:49:46;;;;;;;12.00;9.90;;;;;;;11.31;61.88;99517.77;1646789;86;21234;-60
2021/04/22 05:52:14;;;;;;;10.70;8.73;;;;;;;11.14;62.40;99522.77;1645052;86;21196;-60
2021/04/22 05:54:41;;;;;;;10.23;8.50;;;;;;;11.05;63.32;99517.11;1662520;86;21639;-59
2021/04/22 05:57:10;;;;;;;9.78;8.13;;;;;;;11.08;63.29;99524.72;1666599;86;21636;-60
2021/04/22 05:59:37;;;;;;;9.53;8.23;;;;;;;11.10;62.44;99525.78;1670555;86;21188;-60
2021/04/22 06:02:05;;;;;;;12.33;8.70;;;;;;;11.06;63.03;99524.17;1645733;86;21224;-60
2021/04/22 06:04:32;;;;;;;10.50;8.43;;;;;;;11.08;63.29;99517.09;1620290;86;21754;-60
2021/04/22 06:07:00;;;;;;;10.50;8.58;;;;;;;11.14;63.13;99527.67;1661554;86;21173;-60
2021/04/22 06:09:28;;;;;;;11.78;8.38;;;;;;;11.25;62.97;99527.08;1661680;86;21200;-60
2021/04/22 06:11:55;;;;;;;14.07;8.75;;;;;;;11.32;61.46;99525.67;1668726;86;21319;-60
2021/04/22 06:14:23;;;;;;;10.38;8.23;;;;;;;11.39;61.34;99522.09;1665390;85;21214;-60
2021/04/22 06:16:50;;;;;;;10.03;7.72;;;;;;;11.59;60.86;99531.22;1670215;86;21172;-61
2021/04/22 06:19:17;;;;;;;13.40;7.78;;;;;;;11.73;60.42;99530.88;1672240;86;21341;-60
2021/04/22 06:21:46;;;;;;;9.68;7.47;;;;;;;11.84;59.58;99530.52;1663928;86;21173;-59
2021/04/22 06:24:14;;;;;;;10.40;7.62;;;;;;;11.94;59.64;99531.80;1645444;86;21235;-60
2021/04/22 06:26:43;;;;;;;9.35;7.70;;;;;;;11.97;59.36;99531.22;1652803;86;21188;-60
2021/04/22 06:29:11;;;;;;;9.45;7.45;;;;;;;12.01;59.12;99536.92;1616547;86;21201;-60
2021/04/22 06:31:39;;;;;;;10.55;8.00;;;;;;;12.05;59.18;99532.52;1656168;86;21168;-60
2021/04/22 06:34:07;;;;;;;9.15;7.28;;;;;;;12.07;59.04;99531.70;1647256;86;21182;-60
2021/04/22 06:36:34;;;;;;;10.48;7.58;;;;;;;12.11;59.34;99536.86;1667165;86;21138;-61
2021/04/22 06:39:03;;;;;;;9.63;7.90;;;;;;;12.17;59.24;99531.61;1662055;84;21216;-60
2021/04/22 06:41:30;;;;;;;10.40;7.47;;;;;;;12.22;58.98;99536.21;1655791;84;21626;-60
2021/04/22 06:43:58;;;;;;;9.05;7.22;;;;;;;12.32;58.33;99530.66;1666072;84;21184;-59
2021/04/22 06:46:25;;;;;;;9.75;7.85;;;;;;;12.48;58.07;99532.11;1675257;84;21318;-61
2021/04/22 06:48:53;;;;;;;10.50;7.95;;;;;;;12.59;58.15;99530.09;1676812;83;21206;-61
2021/04/22 06:51:22;;;;;;;9.03;7.40;;;;;;;12.70;57.20;99522.05;1694313;84;21160;-61
2021/04/22 06:53:50;;;;;;;10.23;7.58;;;;;;;12.84;57.29;99521.61;1685260;83;21156;-61
2021/04/22 06:56:17;;;;;;;8.30;7.40;;;;;;;12.89;57.66;99522.92;1681422;84;21173;-60
2021/04/22 06:58:44;;;;;;;12.07;7.47;;;;;;;12.93;56.61;99529.44;1694854;83;21180;-59
2021/04/22 07:01:14;;;;;;;9.78;7.15;;;;;;;12.94;56.81;99524.21;1698000;83;21157;-59
2021/04/22 07:03:42;;;;;;;9.13;7.10;;;;;;;12.91;56.91;99527.53;1699503;83;21180;-59
2021/04/22 07:06:11;;;;;;;9.58;7.40;;;;;;;12.99;56.55;99525.53;1680663;84;21192;-60
2021/04/22 07:11:15;;;;;;;9.03;7.37;;;;;;;13.18;56.08;99520.92;1815464;78;22690;-62
2021/04/22 07:13:43;;;;;;;8.78;6.75;;;;;;;13.19;55.67;99519.82;1787031;80;21366;-62
2021/04/22 07:16:12;;;;;;;10.70;7.80;;;;;;;13.26;55.59;99529.84;1704179;83;21664;-62
2021/04/22 07:18:39;;;;;;;10.13;7.90;;;;;;;13.48;56.05;99527.08;1732827;82;21177;-62
2021/04/22 07:21:06;;;;;;;11.95;7.70;;;;;;;13.80;55.20;99532.05;1710925;82;21209;-61
2021/04/22 07:23:35;;;;;;;11.30;7.42;;;;;;;14.19;53.74;99534.97;1712184;82;21347;-63
2021/04/22 07:26:02;;;;;;;9.00;7.35;;;;;;;14.57;52.84;99529.64;1711520;82;21180;-62
2021/04/22 07:28:30;;;;;;;9.80;7.47;;;;;;;14.77;52.06;99536.09;1723729;82;21166;-59
2021/04/22 07:31:00;;;;;;;9.33;7.22;;;;;;;14.97;53.68;99534.89;1714583;82;21283;-66
2021/04/22 07:33:27;;;;;;;9.78;7.08;;;;;;;15.24;49.77;99528.00;1710951;82;21694;-59
2021/04/22 07:35:55;;;;;;;13.30;7.22;;;;;;;15.39;51.31;99537.27;1711259;82;21176;-61
2021/04/22 07:38:22;;;;;;;10.65;7.50;;;;;;;15.65;51.15;99535.36;1712556;82;21302;-58
2021/04/22 07:40:50;;;;;;;10.43;7.62;;;;;;;15.93;48.89;99534.14;1701339;83;21295;-58
2021/04/22 07:43:18;;;;;;;10.72;7.70;;;;;;;16.15;49.42;99531.95;1705084;83;21331;-61
2021/04/22 07:45:45;;;;;;;9.03;6.78;;;;;;;16.34;48.19;99537.47;1714169;83;21145;-60
2021/04/22 07:48:13;;;;;;;11.50;7.10;;;;;;;16.53;47.23;99530.95;1717025;82;21184;-61
2021/04/22 07:50:41;;;;;;;10.23;7.10;;;;;;;16.66;48.25;99536.37;1713750;82;21251;-59
2021/04/22 07:53:09;;;;;;;10.75;6.30;;;;;;;16.80;47.00;99530.77;1710588;82;21778;-61
2021/04/22 07:55:41;;;;;;;8.73;6.10;;;;;;;17.00;46.14;99528.03;1710733;82;21184;-61
2021/04/22 07:58:08;;;;;;;8.23;5.40;;;;;;;17.09;46.04;99532.42;1719509;82;21695;-60
2021/04/22 08:00:36;;;;;;;9.03;5.30;;;;;;;17.03;44.00;99535.08;1712480;82;21602;-60
2021/04/22 08:03:04;;;;;;;5.55;4.72;;;;;;;16.98;44.75;99537.14;1710735;82;21192;-60
2021/04/22 08:05:35;;;;;;;7.67;4.83;;;;;;;17.01;44.68;99541.44;1715809;83;21140;-60
2021/04/22 08:08:06;;;;;;;8.43;5.17;;;;;;;17.13;45.16;99540.28;1710761;83;21149;-60
2021/04/22 08:10:35;;;;;;;6.35;5.10;;;;;;;17.20;44.92;99530.17;1700811;84;21189;-61
2021/04/22 08:13:04;;;;;;;6.40;4.35;;;;;;;17.13;44.01;99535.34;1701539;83;21315;-61
2021/04/22 08:15:32;;;;;;;6.45;4.53;;;;;;;17.19;44.42;99540.92;1685553;84;21209;-61
2021/04/22 08:18:00;;;;;;;7.92;4.80;;;;;;;17.28;44.54;99530.21;1680293;84;21143;-60
2021/04/22 08:20:28;;;;;;;6.45;4.65;;;;;;;17.40;43.91;99521.30;1691912;84;21191;-61
2021/04/22 08:22:57;;;;;;;6.22;4.70;;;;;;;17.59;43.75;99519.66;1692273;84;21288;-60
2021/04/22 08:25:31;;;;;;;6.05;4.75;;;;;;;17.76;42.75;99514.16;1689566;85;21154;-61
2021/04/22 08:27:58;;;;;;;6.72;4.30;;;;;;;17.96;44.07;99518.21;1689685;83;21125;-60
2021/04/22 08:30:33;;;;;;;5.33;3.75;;;;;;;18.10;43.04;99518.28;1689019;83;21171;-62
2021/04/22 08:33:02;;;;;;;5.00;3.77;;;;;;;18.29;41.08;99504.93;1679836;84;21316;-61
2021/04/22 08:35:31;;;;;;;5.90;3.65;;;;;;;18.44;41.04;99502.78;1687721;84;21198;-62
2021/04/22 08:37:58;;;;;;;4.60;3.72;;;;;;;18.47;40.83;99508.45;1701799;83;21311;-61
2021/04/22 08:40:27;;;;;;;6.45;3.47;;;;;;;18.63;40.73;99503.25;1695956;83;21331;-61
2021/04/22 08:42:54;;;;;;;5.20;3.60;;;;;;;18.73;39.58;99507.83;1705389;83;21170;-62
2021/04/22 08:45:21;;;;;;;4.75;3.45;;;;;;;18.69;37.63;99509.62;1697382;83;21597;-61
2021/04/22 08:47:49;;;;;;;5.33;3.58;;;;;;;18.68;39.28;99502.48;1705959;83;21302;-62
2021/04/22 08:50:26;;;;;;;5.90;3.62;;;;;;;18.73;39.61;99502.88;1705879;83;21333;-62
2021/04/22 08:52:57;;;;;;;5.40;3.58;;;;;;;18.73;37.46;99507.02;1701594;83;21579;-63
2021/04/22 08:55:28;;;;;;;5.12;3.27;;;;;;;18.64;38.17;99509.79;1720186;83;21202;-62
2021/04/22 08:57:57;;;;;;;4.62;3.40;;;;;;;18.45;37.76;99496.95;1700522;83;21612;-63
2021/04/22 09:00:28;;;;;;;8.78;5.42;;;;;;;18.37;39.33;99499.16;1705091;83;21315;-63
2021/04/22 09:02:55;;;;;;;6.80;3.62;;;;;;;18.37;39.12;99502.73;1706548;83;21182;-63
2021/04/22 09:05:23;;;;;;;4.70;3.40;;;;;;;18.29;38.02;99503.55;1693977;85;21208;-63
2021/04/22 09:07:51;;;;;;;4.67;3.40;;;;;;;18.27;39.38;99494.01;1712201;83;21616;-62
2021/04/22 09:10:24;;;;;;;5.75;2.85;;;;;;;18.23;38.67;99499.93;1709587;83;21315;-63
2021/04/22 09:13:04;;;;;;;4.83;3.17;;;;;;;18.08;39.00;99496.30;1701359;83;21575;-63
2021/04/22 09:15:33;;;;;;;6.92;2.95;;;;;;;18.06;40.30;99493.08;1711605;83;21237;-64
2021/04/22 09:18:06;;;;;;;5.35;3.30;;;;;;;18.11;38.60;99498.41;1702029;83;21316;-65
2021/04/22 09:20:39;;;;;;;5.60;2.92;;;;;;;18.20;37.34;99485.44;1709944;83;21126;-63
2021/04/22 09:23:24;;;;;;;5.80;2.83;;;;;;;18.18;38.01;99491.27;1696909;83;21605;-62
2021/04/22 09:26:00;;;;;;;4.28;3.25;;;;;;;18.19;38.01;99494.27;1694642;83;21699;-64
2021/04/22 09:28:42;;;;;;;5.62;3.15;;;;;;;18.36;37.51;99494.78;1708478;83;21149;-63
2021/04/22 09:31:11;;;;;;;3.85;3.00;;;;;;;18.43;37.95;99490.95;1700939;83;21125;-64
2021/04/22 09:33:39;;;;;;;5.30;3.05;;;;;;;18.42;36.61;99489.35;1692691;83;21776;-63
2021/04/22 09:36:12;;;;;;;4.97;3.22;;;;;;;18.36;37.97;99490.08;1687828;84;21169;-64
2021/04/22 09:38:40;;;;;;;3.98;3.20;;;;;;;18.46;37.95;99486.15;1685686;83;21715;-64
2021/04/22 09:41:15;;;;;;;5.58;3.35;;;;;;;18.58;37.94;99486.88;1687340;84;22034;-64
2021/04/22 09:43:42;;;;;;;5.67;3.30;;;;;;;18.75;38.81;99481.28;1698642;84;21633;-63
2021/04/22 09:46:23;;;;;;;5.47;3.33;;;;;;;18.96;37.34;99478.01;1683745;85;21347;-64
2021/04/22 09:48:50;;;;;;;5.45;3.27;;;;;;;19.15;37.71;99478.39;1694300;84;21185;-64
2021/04/22 09:51:31;;;;;;;5.20;3.27;;;;;;;19.08;36.43;99479.48;1693355;84;21201;-64
2021/04/22 09:54:19;;;;;;;4.90;3.52;;;;;;;18.85;37.09;99483.66;1700726;84;21202;-64
2021/04/22 09:56:55;;;;;;;6.42;3.75;;;;;;;18.43;37.62;99488.19;1721567;83;21609;-63
2021/04/22 09:59:26;;;;;;;5.40;3.67;;;;;;;18.03;39.93;99479.38;1708187;83;21358;-62
2021/04/22 10:02:05;;;;;;;5.42;3.50;;;;;;;17.68;42.58;99490.19;1695984;84;21185;-63
2021/04/22 10:04:41;;;;;;;6.00;4.50;;;;;;;17.33;43.46;99484.64;1705857;84;21602;-64
2021/04/22 10:07:30;;;;;;;10.90;7.12;;;;;;;17.10;45.22;99479.04;1692350;85;21177;-62
2021/04/22 10:10:15;;;;;;;9.08;6.15;;;;;;;16.92;45.40;99484.25;1687863;85;21626;-63
2021/04/22 10:12:43;;;;;;;6.42;4.50;;;;;;;16.77;46.20;99485.50;1683968;84;21595;-63
2021/04/22 10:15:21;;;;;;;5.80;4.47;;;;;;;16.69;46.77;99485.45;1650992;85;21404;-63
2021/04/22 10:17:59;;;;;;;8.23;6.00;;;;;;;16.68;46.59;99489.36;1678521;84;21194;-64
2021/04/22 10:20:29;;;;;;;7.25;3.67;;;;;;;16.66;45.62;99485.53;1677999;84;21633;-63
2021/04/22 10:22:57;;;;;;;4.95;3.80;;;;;;;16.57;44.85;99479.21;1678896;84;21172;-63
2021/04/22 10:25:27;;;;;;;6.15;3.50;;;;;;;16.41;43.47;99477.96;1696617;83;21328;-64
2021/04/22 10:28:06;;;;;;;6.58;3.58;;;;;;;16.28;44.47;99486.55;1693849;84;21300;-64
2021/04/22 10:30:42;;;;;;;5.00;3.60;;;;;;;16.19;45.01;99470.58;1790064;78;23093;-63
2021/04/22 10:33:10;;;;;;;4.97;3.83;;;;;;;16.00;45.42;99475.48;1771406;80;21295;-63
2021/04/22 10:35:40;;;;;;;4.95;3.27;;;;;;;15.81;47.07;99473.48;1769952;80;21164;-61
2021/04/22 10:38:08;;;;;;;6.28;3.65;;;;;;;15.78;48.12;99480.98;1768898;80;21136;-61
2021/04/22 10:40:38;;;;;;;8.53;4.90;;;;;;;15.71;47.92;99481.42;1765639;80;21703;-63
2021/04/22 10:43:07;;;;;;;5.53;4.35;;;;;;;15.62;51.01;99471.51;1768901;80;21632;-62
2021/04/22 10:45:37;;;;;;;5.80;4.28;;;;;;;15.52;49.32;99473.13;1772708;80;21744;-63
2021/04/22 10:48:05;;;;;;;5.97;4.22;;;;;;;15.49;52.39;99462.75;1761250;80;21145;-63
2021/04/22 10:50:39;;;;;;;7.33;4.20;;;;;;;15.44;51.43;99456.23;1772654;80;21374;-63
2021/04/22 10:53:11;;;;;;;6.40;4.40;;;;;;;15.45;51.84;99462.53;1769248;80;21587;-61
2021/04/22 10:55:41;;;;;;;6.47;5.22;;;;;;;15.53;51.67;99461.02;1760648;80;21200;-64
2021/04/22 10:58:25;;;;;;;7.67;5.83;;;;;;;15.69;51.50;99458.16;1763284;80;21572;-64
2021/04/22 11:02:28;;;;;;;6.83;4.35;;;;;;;15.95;49.10;99453.64;1811162;77;22943;-64
2021/04/22 11:04:56;;;;;;;9.63;6.47;;;;;;;15.96;48.25;99454.45;1731003;82;21177;-64
2021/04/22 11:07:25;;;;;;;6.78;5.05;;;;;;;16.05;48.40;99460.23;1698042;83;21200;-66
2021/04/22 11:10:00;;;;;;;8.13;5.17;;;;;;;16.05;47.74;99458.86;1687649;83;21723;-65
2021/04/22 11:12:29;;;;;;;10.88;6.35;;;;;;;15.92;47.95;99450.16;1688973;83;21202;-66
2021/04/22 11:14:58;;;;;;;7.00;5.10;;;;;;;15.87;48.80;99443.44;1683578;83;21176;-65
2021/04/22 11:17:37;;;;;;;6.83;5.22;;;;;;;15.93;47.91;99440.80;1695717;84;21197;-66
2021/04/22 11:20:18;;;;;;;5.05;4.20;;;;;;;16.04;49.09;99437.23;1695922;83;21565;-65
2021/04/22 11:22:46;;;;;;;7.40;6.10;;;;;;;16.13;46.97;99432.02;1698399;84;21221;-67
2021/04/22 11:25:20;;;;;;;5.10;3.92;;;;;;;16.17;47.00;99445.37;1676904;83;21532;-66
2021/04/22 11:27:52;;;;;;;8.13;3.83;;;;;;;16.13;45.59;99441.64;1687309;83;21138;-66
2021/04/22 11:30:28;;;;;;;5.53;4.08;;;;;;;16.08;46.16;99436.86;1677526;84;21300;-66
2021/04/22 11:32:58;;;;;;;4.47;3.27;;;;;;;16.05;46.13;99425.92;1690759;83;21166;-67
2021/04/22 11:35:27;;;;;;;6.08;4.05;;;;;;;16.15;46.37;99422.92;1693568;84;21182;-67
2021/04/22 11:38:02;;;;;;;6.67;3.80;;;;;;;16.28;45.72;99426.69;1698054;84;21168;-66
2021/04/22 11:40:47;;;;;;;6.97;4.87;;;;;;;16.33;45.65;99434.21;1673641;84;21220;-66
2021/04/22 11:43:23;;;;;;;6.08;4.12;;;;;;;16.38;45.34;99427.22;1699848;83;21161;-66
2021/04/22 11:45:53;;;;;;;5.70;3.60;;;;;;;16.41;46.83;99432.07;1693968;84;21364;-66